Flight Track Log - Related Links

Times and Time Zones

All times are in EDT time to prevent confusion due to time zone crossing. See the N700QA flight status page for this flight to view local times or setup timezone preferences in your user account.

Time Position Orientation Groundspeed Altitude Reporting Facility
EDT Latitude Longitude Course Direction KTS MPH feet Rate Location/Type
Tue 01:47:39 PM 29.5247 -98.4636 90° East 165 190 1,400  Level Houston Center
Tue 01:49:05 PM 29.4769 -98.3889 126° Southeast 210 242 5,700 2,935 Climbing Houston Center
Tue 01:49:11 PM 29.4756 -98.3856 116° Southeast 214 246 5,900 2,361 Climbing Houston Center
Tue 01:50:06 PM 29.4978 -98.3247 67° East 226 260 8,100 2,400 Climbing Houston Center
Tue 01:50:11 PM 29.5011 -98.3200 51° Northeast 241 277 8,300 2,806 Climbing Houston Center
Tue 01:51:08 PM 29.5342 -98.2481 62° Northeast 255 293 11,000 2,471 Climbing Houston Center
Tue 01:52:10 PM 29.5739 -98.1764 57° Northeast 270 311 13,200 2,129 Climbing Houston Center
Tue 01:53:00 PM 29.5602 -97.8823 90° East  Level Estimated
Tue 01:53:12 PM 29.6122 -98.0981 61° Northeast 283 326 15,400  Level Houston Center
Tue 01:54:13 PM 29.6533 -98.0022 64° Northeast 315 362 16,600 732 Climbing Houston Center
Tue 01:55:15 PM 29.6453 -97.8903 95° East 350 403 16,900 145 Climbing Houston Center
Tue 01:56:17 PM 29.6236 -97.7761 102° East 364 419 16,900  Level Houston Center
Tue 01:57:18 PM 29.6044 -97.6692 102° East 350 403 16,900 49 Level Houston Center
Tue 01:58:20 PM 29.5864 -97.5619 101° East 344 396 17,000 48 Climbing Houston Center
Tue 01:59:22 PM 29.5678 -97.4581 102° East 335 386 17,000  Level Houston Center
Tue 02:00:24 PM 29.5483 -97.3542 102° East 333 383 17,000 -48 Level Houston Center
Tue 02:01:26 PM 29.5386 -97.2478 96° East 335 386 16,900  Descending Houston Center
Tue 02:02:27 PM 29.5292 -97.1200 95° East 335 386 17,000 49 Climbing Houston Center
Tue 02:03:29 PM 29.5247 -97.0139 93° East 347 399 17,000 -48 Level Houston Center
Tue 02:04:31 PM 29.5186 -96.9050 94° East 327 376 16,900 -581 Descending Houston Center
Tue 02:05:33 PM 29.5097 -96.8028 96° East 318 366 15,800 -1,113 Descending Houston Center
Tue 02:06:35 PM 29.4922 -96.7103 102° East 296 341 14,600 -1,306 Descending Houston Center
Tue 02:07:37 PM 29.4433 -96.6461 131° Southeast 269 310 13,100 -1,403 Descending Houston Center
Tue 02:08:39 PM 29.3875 -96.5944 141° Southeast 259 298 11,700 -919 Descending Houston Center
Tue 02:09:41 PM 29.3367 -96.5500 143° Southeast 233 268 11,200 -525 Descending Houston Center
Tue 02:09:59 PM 29.3119 -96.5303 145° Southeast 235 270 11,000 -200 Descending Houston Center
Tue 02:10:41 PM 29.2908 -96.4800 116° Southeast 279 321 11,000  Level Houston Center
Tue 02:10:43 PM 29.2900 -96.4939 266° West 253 291 11,000  Level Houston Center
Tue 02:11:43 PM 29.3014 -96.3806 83° East 327 376 11,000  Level Houston Center
Tue 02:11:44 PM 29.3011 -96.3806 180° South 298 343 11,000  Level Houston Center
Tue 02:12:44 PM 29.3033 -96.2800 89° East 335 386 11,000  Level Houston Center
Tue 02:12:46 PM 29.3050 -96.2761 64° Northeast 322 371 11,000  Level Houston Center
Tue 02:13:45 PM 29.3056 -96.1817 90° East 278 320 11,000  Level Houston Center
Tue 02:13:48 PM 29.3039 -96.1853 242° Southwest 291 335 11,000 -98 Level Houston Center
Tue 02:14:46 PM 29.3061 -96.0906 88° East 289 333 10,900 -97 Descending Houston Center
Tue 02:14:50 PM 29.3056 -96.0936 258° West 289 333 10,900 91 Level Houston Center
Tue 02:15:52 PM 29.3322 -96.0122 69° East 287 330 11,000 -194 Climbing Houston Center
Tue 02:16:54 PM 29.3972 -95.9428 43° Northeast 292 336 10,500 -476 Descending Houston Center
Tue 02:16:55 PM 29.4058 -95.9356 36° Northeast 296 341 10,500 -968 Level Houston Center
Tue 02:17:56 PM 29.4436 -95.8689 57° Northeast 289 333 9,500 -1,180 Descending Houston Center
Tue 02:18:57 PM 29.4450 -95.7822 89° East 226 260 8,100 -1,258 Descending Houston Center
Tue 02:18:58 PM 29.4458 -95.7908 276° West 251 289 8,200 -1,645 Climbing Houston Center
Tue 02:19:59 PM 29.4528 -95.7069 85° East 219 252 6,400 -1,452 Descending Houston Center
Tue 02:20:00 PM 29.4506 -95.7214 260° West 223 257 6,700 -1,574 Climbing Houston Center
Tue 02:21:00 PM 29.4553 -95.6394 86° East 212 244 4,800 -1,839 Descending Houston Center
Tue 02:21:02 PM 29.4561 -95.6392 16° North 217 250 4,800 -1,500 Level Houston Center
Tue 02:22:04 PM 29.4669 -95.5736 79° East 211 243 3,200 -900 Descending Houston Center
Tue 02:23:02 PM 29.4964 -95.5147 60° Northeast 210 242 3,000 -194 Descending Houston Center
Tue 02:23:06 PM 29.4953 -95.5144 168° South 211 243 3,000  Level Houston Center
Tue 02:24:03 PM 29.5283 -95.4486 60° Northeast 221 254 3,000  Level Houston Center
Tue 02:24:08 PM 29.5258 -95.4533 239° Southwest 217 250 3,000 -393 Level Houston Center
Tue 02:25:04 PM 29.5564 -95.3875 62° Northeast 215 247 2,600 -387 Descending Houston Center
Tue 02:25:10 PM 29.5547 -95.3931 251° West 216 249 2,600 -1,161 Level Houston Center
Tue 02:26:06 PM 29.5897 -95.3403 53° Northeast 185 213 1,400 -1,161 Descending Houston Center
Tue 02:26:12 PM 29.5872 -95.3417 206° Southwest 206 237 1,400 -882 Level Houston Center
Tue 02:27:14 PM 29.6264 -95.2994 43° Northeast 176 203 400 -581 Descending Houston Center
Tue 02:28:16 PM 29.6547 -95.2656 46° Northeast 171 197 200 -194 Descending Houston Center

Login

Don't have an account? Register now (free) for customized features, flight alerts, and more!